sensor_id;sensor_type;location;lat;lon;timestamp;P1;durP1;ratioP1;P2;durP2;ratioP2
55146;SDS011;41039;49.830;23.988;2022-12-18T00:00:53;40.50;;;18.92;;
55146;SDS011;41039;49.830;23.988;2022-12-18T00:03:19;40.22;;;18.73;;
55146;SDS011;41039;49.830;23.988;2022-12-18T00:05:47;47.20;;;20.42;;
55146;SDS011;41039;49.830;23.988;2022-12-18T00:08:13;44.45;;;21.05;;
55146;SDS011;41039;49.830;23.988;2022-12-18T00:10:38;41.42;;;18.20;;
55146;SDS011;41039;49.830;23.988;2022-12-18T00:13:03;43.38;;;17.92;;
55146;SDS011;41039;49.830;23.988;2022-12-18T00:15:28;51.30;;;22.10;;
55146;SDS011;41039;49.830;23.988;2022-12-18T00:17:54;44.67;;;18.38;;
55146;SDS011;41039;49.830;23.988;2022-12-18T00:20:19;44.17;;;20.80;;
55146;SDS011;41039;49.830;23.988;2022-12-18T00:22:50;45.38;;;18.27;;
55146;SDS011;41039;49.830;23.988;2022-12-18T00:25:15;44.15;;;19.15;;
55146;SDS011;41039;49.830;23.988;2022-12-18T00:27:41;44.63;;;19.23;;
55146;SDS011;41039;49.830;23.988;2022-12-18T00:30:06;45.88;;;19.85;;
55146;SDS011;41039;49.830;23.988;2022-12-18T00:32:32;46.45;;;20.13;;
55146;SDS011;41039;49.830;23.988;2022-12-18T00:34:57;54.00;;;21.50;;
55146;SDS011;41039;49.830;23.988;2022-12-18T00:37:22;53.20;;;23.08;;
55146;SDS011;41039;49.830;23.988;2022-12-18T00:39:48;54.13;;;21.23;;
55146;SDS011;41039;49.830;23.988;2022-12-18T00:42:14;49.38;;;22.10;;
55146;SDS011;41039;49.830;23.988;2022-12-18T00:44:58;40.67;;;18.38;;
55146;SDS011;41039;49.830;23.988;2022-12-18T00:47:23;41.72;;;19.67;;
55146;SDS011;41039;49.830;23.988;2022-12-18T00:49:48;42.42;;;18.02;;
55146;SDS011;41039;49.830;23.988;2022-12-18T00:52:13;44.22;;;20.80;;
55146;SDS011;41039;49.830;23.988;2022-12-18T00:54:39;41.72;;;18.10;;
55146;SDS011;41039;49.830;23.988;2022-12-18T00:57:04;43.10;;;19.02;;
55146;SDS011;41039;49.830;23.988;2022-12-18T00:59:29;41.60;;;18.25;;
55146;SDS011;41039;49.830;23.988;2022-12-18T01:01:55;44.40;;;18.75;;
55146;SDS011;41039;49.830;23.988;2022-12-18T01:04:20;40.38;;;17.60;;
55146;SDS011;41039;49.830;23.988;2022-12-18T01:06:45;41.22;;;19.35;;
55146;SDS011;41039;49.830;23.988;2022-12-18T01:09:11;43.78;;;18.35;;
55146;SDS011;41039;49.830;23.988;2022-12-18T01:11:36;40.72;;;16.92;;
55146;SDS011;41039;49.830;23.988;2022-12-18T01:14:01;46.45;;;21.98;;
55146;SDS011;41039;49.830;23.988;2022-12-18T01:16:27;45.92;;;20.70;;
55146;SDS011;41039;49.830;23.988;2022-12-18T01:18:52;39.97;;;17.83;;
55146;SDS011;41039;49.830;23.988;2022-12-18T01:21:18;43.42;;;20.70;;
55146;SDS011;41039;49.830;23.988;2022-12-18T01:23:44;49.38;;;19.15;;
55146;SDS011;41039;49.830;23.988;2022-12-18T01:26:11;43.90;;;18.10;;
55146;SDS011;41039;49.830;23.988;2022-12-18T01:28:37;44.05;;;18.65;;
55146;SDS011;41039;49.830;23.988;2022-12-18T01:33:57;41.38;;;18.40;;
55146;SDS011;41039;49.830;23.988;2022-12-18T01:36:26;42.30;;;18.73;;
55146;SDS011;41039;49.830;23.988;2022-12-18T01:38:52;44.47;;;19.05;;
55146;SDS011;41039;49.830;23.988;2022-12-18T01:41:22;41.30;;;18.77;;
55146;SDS011;41039;49.830;23.988;2022-12-18T01:46:13;48.03;;;20.38;;
55146;SDS011;41039;49.830;23.988;2022-12-18T01:48:38;47.00;;;19.02;;
55146;SDS011;41039;49.830;23.988;2022-12-18T01:51:04;41.30;;;18.30;;
55146;SDS011;41039;49.830;23.988;2022-12-18T01:53:31;47.53;;;20.23;;
55146;SDS011;41039;49.830;23.988;2022-12-18T01:55:56;41.25;;;18.30;;
55146;SDS011;41039;49.830;23.988;2022-12-18T01:58:28;45.45;;;19.10;;
55146;SDS011;41039;49.830;23.988;2022-12-18T02:00:55;43.22;;;19.08;;
55146;SDS011;41039;49.830;23.988;2022-12-18T02:03:20;51.22;;;20.83;;
55146;SDS011;41039;49.830;23.988;2022-12-18T02:05:57;40.92;;;16.67;;
55146;SDS011;41039;49.830;23.988;2022-12-18T02:08:30;48.60;;;18.92;;
55146;SDS011;41039;49.830;23.988;2022-12-18T02:11:07;47.45;;;17.20;;
55146;SDS011;41039;49.830;23.988;2022-12-18T02:18:53;44.00;;;18.05;;
55146;SDS011;41039;49.830;23.988;2022-12-18T02:24:10;47.13;;;19.45;;
55146;SDS011;41039;49.830;23.988;2022-12-18T02:26:36;46.88;;;17.10;;
55146;SDS011;41039;49.830;23.988;2022-12-18T02:29:46;46.25;;;18.08;;
55146;SDS011;41039;49.830;23.988;2022-12-18T02:31:57;47.65;;;18.30;;
55146;SDS011;41039;49.830;23.988;2022-12-18T02:34:24;46.83;;;17.98;;
55146;SDS011;41039;49.830;23.988;2022-12-18T02:36:51;47.83;;;21.83;;
55146;SDS011;41039;49.830;23.988;2022-12-18T02:39:18;53.67;;;19.02;;
55146;SDS011;41039;49.830;23.988;2022-12-18T02:41:45;48.47;;;19.13;;
55146;SDS011;41039;49.830;23.988;2022-12-18T02:44:11;40.55;;;15.88;;
55146;SDS011;41039;49.830;23.988;2022-12-18T02:51:32;39.38;;;17.38;;
55146;SDS011;41039;49.830;23.988;2022-12-18T02:54:06;41.72;;;17.27;;
55146;SDS011;41039;49.830;23.988;2022-12-18T02:56:56;38.78;;;16.23;;
55146;SDS011;41039;49.830;23.988;2022-12-18T02:59:34;33.92;;;14.82;;
55146;SDS011;41039;49.830;23.988;2022-12-18T03:02:15;43.38;;;16.13;;
55146;SDS011;41039;49.830;23.988;2022-12-18T03:04:47;48.08;;;17.23;;
55146;SDS011;41039;49.830;23.988;2022-12-18T03:07:15;38.67;;;16.13;;
55146;SDS011;41039;49.830;23.988;2022-12-18T03:09:43;36.92;;;15.00;;
55146;SDS011;41039;49.830;23.988;2022-12-18T03:12:14;45.08;;;16.98;;
55146;SDS011;41039;49.830;23.988;2022-12-18T03:14:57;40.10;;;16.20;;
55146;SDS011;41039;49.830;23.988;2022-12-18T03:17:25;44.90;;;17.88;;
55146;SDS011;41039;49.830;23.988;2022-12-18T03:19:51;47.17;;;16.13;;
55146;SDS011;41039;49.830;23.988;2022-12-18T03:22:17;35.75;;;15.73;;
55146;SDS011;41039;49.830;23.988;2022-12-18T03:24:43;39.63;;;14.00;;
55146;SDS011;41039;49.830;23.988;2022-12-18T03:27:12;36.65;;;14.13;;
55146;SDS011;41039;49.830;23.988;2022-12-18T03:29:40;33.25;;;13.45;;
55146;SDS011;41039;49.830;23.988;2022-12-18T03:32:09;36.03;;;13.93;;
55146;SDS011;41039;49.830;23.988;2022-12-18T03:34:35;31.35;;;14.85;;
55146;SDS011;41039;49.830;23.988;2022-12-18T03:37:02;35.25;;;15.02;;
55146;SDS011;41039;49.830;23.988;2022-12-18T03:39:28;34.03;;;12.88;;
55146;SDS011;41039;49.830;23.988;2022-12-18T03:47:21;33.88;;;15.25;;
55146;SDS011;41039;49.830;23.988;2022-12-18T03:50:05;37.42;;;15.05;;
55146;SDS011;41039;49.830;23.988;2022-12-18T03:52:40;43.60;;;16.52;;
55146;SDS011;41039;49.830;23.988;2022-12-18T03:55:08;39.55;;;15.90;;
55146;SDS011;41039;49.830;23.988;2022-12-18T03:57:34;44.08;;;17.40;;
55146;SDS011;41039;49.830;23.988;2022-12-18T04:00:02;51.72;;;18.13;;
55146;SDS011;41039;49.830;23.988;2022-12-18T04:02:28;49.80;;;17.88;;
55146;SDS011;41039;49.830;23.988;2022-12-18T04:04:56;43.10;;;18.13;;
55146;SDS011;41039;49.830;23.988;2022-12-18T04:07:22;57.78;;;20.95;;
55146;SDS011;41039;49.830;23.988;2022-12-18T04:09:48;57.92;;;21.65;;
55146;SDS011;41039;49.830;23.988;2022-12-18T04:12:13;60.67;;;21.98;;
55146;SDS011;41039;49.830;23.988;2022-12-18T04:14:39;63.30;;;22.55;;
55146;SDS011;41039;49.830;23.988;2022-12-18T04:17:04;61.83;;;22.45;;
55146;SDS011;41039;49.830;23.988;2022-12-18T04:19:29;55.95;;;19.88;;
55146;SDS011;41039;49.830;23.988;2022-12-18T04:21:54;65.38;;;24.85;;
55146;SDS011;41039;49.830;23.988;2022-12-18T04:24:20;62.08;;;21.95;;
55146;SDS011;41039;49.830;23.988;2022-12-18T04:26:45;73.70;;;26.48;;
55146;SDS011;41039;49.830;23.988;2022-12-18T04:29:11;66.18;;;25.63;;
55146;SDS011;41039;49.830;23.988;2022-12-18T04:31:36;57.22;;;21.55;;
55146;SDS011;41039;49.830;23.988;2022-12-18T04:34:01;67.35;;;24.13;;
55146;SDS011;41039;49.830;23.988;2022-12-18T04:36:27;63.50;;;23.13;;
55146;SDS011;41039;49.830;23.988;2022-12-18T04:38:52;65.85;;;24.38;;
55146;SDS011;41039;49.830;23.988;2022-12-18T04:41:17;65.38;;;25.08;;
55146;SDS011;41039;49.830;23.988;2022-12-18T04:43:43;66.30;;;24.80;;
55146;SDS011;41039;49.830;23.988;2022-12-18T04:46:08;53.60;;;21.50;;
55146;SDS011;41039;49.830;23.988;2022-12-18T04:48:34;54.67;;;22.25;;
55146;SDS011;41039;49.830;23.988;2022-12-18T04:50:59;65.90;;;21.85;;
55146;SDS011;41039;49.830;23.988;2022-12-18T04:53:24;57.40;;;22.20;;
55146;SDS011;41039;49.830;23.988;2022-12-18T04:55:50;59.25;;;20.67;;
55146;SDS011;41039;49.830;23.988;2022-12-18T04:58:15;48.63;;;19.88;;
55146;SDS011;41039;49.830;23.988;2022-12-18T05:00:40;57.67;;;20.95;;
55146;SDS011;41039;49.830;23.988;2022-12-18T05:03:06;55.05;;;20.70;;
55146;SDS011;41039;49.830;23.988;2022-12-18T05:05:31;67.25;;;23.42;;
55146;SDS011;41039;49.830;23.988;2022-12-18T05:07:56;54.83;;;22.65;;
55146;SDS011;41039;49.830;23.988;2022-12-18T05:10:21;52.65;;;19.45;;
55146;SDS011;41039;49.830;23.988;2022-12-18T05:12:47;50.85;;;18.88;;
55146;SDS011;41039;49.830;23.988;2022-12-18T05:15:28;48.85;;;17.00;;
55146;SDS011;41039;49.830;23.988;2022-12-18T05:17:53;39.70;;;15.48;;
55146;SDS011;41039;49.830;23.988;2022-12-18T05:20:19;41.33;;;16.38;;
55146;SDS011;41039;49.830;23.988;2022-12-18T05:22:44;40.40;;;17.80;;
55146;SDS011;41039;49.830;23.988;2022-12-18T05:25:09;39.00;;;15.68;;
55146;SDS011;41039;49.830;23.988;2022-12-18T05:27:35;33.35;;;13.75;;
55146;SDS011;41039;49.830;23.988;2022-12-18T05:30:00;31.65;;;13.95;;
55146;SDS011;41039;49.830;23.988;2022-12-18T05:32:25;32.83;;;13.65;;
55146;SDS011;41039;49.830;23.988;2022-12-18T05:34:50;29.15;;;11.52;;
55146;SDS011;41039;49.830;23.988;2022-12-18T05:37:16;32.70;;;14.70;;
55146;SDS011;41039;49.830;23.988;2022-12-18T05:39:42;35.50;;;14.35;;
55146;SDS011;41039;49.830;23.988;2022-12-18T05:42:07;31.98;;;13.65;;
55146;SDS011;41039;49.830;23.988;2022-12-18T05:44:32;30.58;;;12.07;;
55146;SDS011;41039;49.830;23.988;2022-12-18T05:46:58;35.30;;;11.18;;
55146;SDS011;41039;49.830;23.988;2022-12-18T05:49:23;30.73;;;12.93;;
55146;SDS011;41039;49.830;23.988;2022-12-18T05:51:48;36.60;;;13.77;;
55146;SDS011;41039;49.830;23.988;2022-12-18T05:54:13;30.85;;;12.88;;
55146;SDS011;41039;49.830;23.988;2022-12-18T05:56:38;29.08;;;12.60;;
55146;SDS011;41039;49.830;23.988;2022-12-18T05:59:04;31.92;;;11.43;;
55146;SDS011;41039;49.830;23.988;2022-12-18T06:01:29;29.27;;;10.88;;
55146;SDS011;41039;49.830;23.988;2022-12-18T06:03:54;33.22;;;12.68;;
55146;SDS011;41039;49.830;23.988;2022-12-18T06:06:21;34.17;;;14.18;;
55146;SDS011;41039;49.830;23.988;2022-12-18T06:08:47;25.77;;;10.27;;
55146;SDS011;41039;49.830;23.988;2022-12-18T06:11:13;28.98;;;11.00;;
55146;SDS011;41039;49.830;23.988;2022-12-18T06:13:38;32.05;;;13.38;;
55146;SDS011;41039;49.830;23.988;2022-12-18T06:16:04;26.75;;;10.23;;
55146;SDS011;41039;49.830;23.988;2022-12-18T06:18:29;25.50;;;11.13;;
55146;SDS011;41039;49.830;23.988;2022-12-18T06:20:55;29.55;;;11.45;;
55146;SDS011;41039;49.830;23.988;2022-12-18T06:23:21;25.45;;;11.95;;
55146;SDS011;41039;49.830;23.988;2022-12-18T06:25:46;27.17;;;11.60;;
55146;SDS011;41039;49.830;23.988;2022-12-18T06:28:11;28.50;;;9.63;;
55146;SDS011;41039;49.830;23.988;2022-12-18T06:30:36;29.27;;;12.05;;
55146;SDS011;41039;49.830;23.988;2022-12-18T06:33:02;25.30;;;10.18;;
55146;SDS011;41039;49.830;23.988;2022-12-18T06:35:27;24.85;;;9.55;;
55146;SDS011;41039;49.830;23.988;2022-12-18T06:37:52;24.05;;;9.02;;
55146;SDS011;41039;49.830;23.988;2022-12-18T06:40:17;24.58;;;10.80;;
55146;SDS011;41039;49.830;23.988;2022-12-18T06:42:43;26.67;;;10.75;;
55146;SDS011;41039;49.830;23.988;2022-12-18T06:45:08;22.38;;;8.73;;
55146;SDS011;41039;49.830;23.988;2022-12-18T06:47:34;23.98;;;8.93;;
55146;SDS011;41039;49.830;23.988;2022-12-18T06:49:59;26.75;;;9.93;;
55146;SDS011;41039;49.830;23.988;2022-12-18T06:52:24;24.60;;;9.85;;
55146;SDS011;41039;49.830;23.988;2022-12-18T06:54:49;24.77;;;10.63;;
55146;SDS011;41039;49.830;23.988;2022-12-18T06:57:15;21.25;;;9.13;;
55146;SDS011;41039;49.830;23.988;2022-12-18T06:59:40;19.25;;;8.55;;
55146;SDS011;41039;49.830;23.988;2022-12-18T07:02:05;22.90;;;8.60;;
55146;SDS011;41039;49.830;23.988;2022-12-18T07:04:30;22.50;;;9.30;;
55146;SDS011;41039;49.830;23.988;2022-12-18T07:06:56;21.73;;;9.40;;
55146;SDS011;41039;49.830;23.988;2022-12-18T07:09:22;25.55;;;10.45;;
55146;SDS011;41039;49.830;23.988;2022-12-18T07:11:47;28.58;;;12.57;;
55146;SDS011;41039;49.830;23.988;2022-12-18T07:14:12;30.38;;;11.52;;
55146;SDS011;41039;49.830;23.988;2022-12-18T07:16:37;30.40;;;10.88;;
55146;SDS011;41039;49.830;23.988;2022-12-18T07:19:03;23.95;;;10.30;;
55146;SDS011;41039;49.830;23.988;2022-12-18T07:21:28;30.15;;;12.65;;
55146;SDS011;41039;49.830;23.988;2022-12-18T07:23:53;28.23;;;12.57;;
55146;SDS011;41039;49.830;23.988;2022-12-18T07:26:19;26.45;;;11.43;;
55146;SDS011;41039;49.830;23.988;2022-12-18T07:28:45;33.30;;;12.73;;
55146;SDS011;41039;49.830;23.988;2022-12-18T07:31:11;29.90;;;12.02;;
55146;SDS011;41039;49.830;23.988;2022-12-18T07:33:37;30.85;;;13.77;;
55146;SDS011;41039;49.830;23.988;2022-12-18T07:36:03;25.73;;;11.10;;
55146;SDS011;41039;49.830;23.988;2022-12-18T07:38:29;30.65;;;11.35;;
55146;SDS011;41039;49.830;23.988;2022-12-18T07:40:54;30.75;;;11.98;;
55146;SDS011;41039;49.830;23.988;2022-12-18T07:43:19;39.63;;;14.82;;
55146;SDS011;41039;49.830;23.988;2022-12-18T07:45:45;30.00;;;11.20;;
55146;SDS011;41039;49.830;23.988;2022-12-18T07:48:10;32.83;;;13.18;;
55146;SDS011;41039;49.830;23.988;2022-12-18T07:50:36;33.60;;;14.25;;
55146;SDS011;41039;49.830;23.988;2022-12-18T07:53:01;39.92;;;14.63;;
55146;SDS011;41039;49.830;23.988;2022-12-18T07:55:29;43.65;;;16.60;;
55146;SDS011;41039;49.830;23.988;2022-12-18T07:57:54;36.33;;;14.98;;
55146;SDS011;41039;49.830;23.988;2022-12-18T08:00:19;34.10;;;13.30;;
55146;SDS011;41039;49.830;23.988;2022-12-18T08:02:44;34.67;;;14.02;;
55146;SDS011;41039;49.830;23.988;2022-12-18T08:05:10;35.88;;;14.25;;
55146;SDS011;41039;49.830;23.988;2022-12-18T08:07:35;33.95;;;13.82;;
55146;SDS011;41039;49.830;23.988;2022-12-18T08:10:00;28.75;;;12.25;;
55146;SDS011;41039;49.830;23.988;2022-12-18T08:12:25;34.63;;;14.05;;
55146;SDS011;41039;49.830;23.988;2022-12-18T08:14:51;47.08;;;20.67;;
55146;SDS011;41039;49.830;23.988;2022-12-18T08:17:16;35.78;;;14.15;;
55146;SDS011;41039;49.830;23.988;2022-12-18T08:19:41;32.22;;;12.85;;
55146;SDS011;41039;49.830;23.988;2022-12-18T08:22:06;35.33;;;16.70;;
55146;SDS011;41039;49.830;23.988;2022-12-18T08:24:32;33.88;;;16.05;;
55146;SDS011;41039;49.830;23.988;2022-12-18T08:26:57;39.60;;;15.20;;
55146;SDS011;41039;49.830;23.988;2022-12-18T08:29:22;40.92;;;14.93;;
55146;SDS011;41039;49.830;23.988;2022-12-18T08:31:47;29.90;;;13.85;;
55146;SDS011;41039;49.830;23.988;2022-12-18T08:34:13;35.50;;;13.10;;
55146;SDS011;41039;49.830;23.988;2022-12-18T08:36:38;29.00;;;12.82;;
55146;SDS011;41039;49.830;23.988;2022-12-18T08:39:03;32.28;;;13.52;;
55146;SDS011;41039;49.830;23.988;2022-12-18T08:41:28;33.03;;;11.77;;
55146;SDS011;41039;49.830;23.988;2022-12-18T08:43:54;31.77;;;12.65;;
55146;SDS011;41039;49.830;23.988;2022-12-18T08:46:38;32.78;;;13.70;;
55146;SDS011;41039;49.830;23.988;2022-12-18T08:49:04;33.78;;;14.35;;
55146;SDS011;41039;49.830;23.988;2022-12-18T08:51:29;34.00;;;14.35;;
55146;SDS011;41039;49.830;23.988;2022-12-18T08:53:55;26.35;;;10.88;;
55146;SDS011;41039;49.830;23.988;2022-12-18T08:56:20;29.90;;;13.25;;
55146;SDS011;41039;49.830;23.988;2022-12-18T08:58:45;29.80;;;11.18;;
55146;SDS011;41039;49.830;23.988;2022-12-18T09:01:11;27.08;;;12.40;;
55146;SDS011;41039;49.830;23.988;2022-12-18T09:03:37;34.88;;;14.23;;
55146;SDS011;41039;49.830;23.988;2022-12-18T09:06:02;30.85;;;15.30;;
55146;SDS011;41039;49.830;23.988;2022-12-18T09:08:28;28.40;;;12.90;;
55146;SDS011;41039;49.830;23.988;2022-12-18T09:10:53;36.25;;;14.25;;
55146;SDS011;41039;49.830;23.988;2022-12-18T09:13:18;29.95;;;11.90;;
55146;SDS011;41039;49.830;23.988;2022-12-18T09:15:47;28.48;;;13.77;;
55146;SDS011;41039;49.830;23.988;2022-12-18T09:18:14;33.60;;;14.20;;
55146;SDS011;41039;49.830;23.988;2022-12-18T09:20:41;31.80;;;13.02;;
55146;SDS011;41039;49.830;23.988;2022-12-18T09:23:06;32.92;;;13.75;;
55146;SDS011;41039;49.830;23.988;2022-12-18T09:25:32;30.98;;;12.60;;
55146;SDS011;41039;49.830;23.988;2022-12-18T09:27:59;36.90;;;13.55;;
55146;SDS011;41039;49.830;23.988;2022-12-18T09:30:25;32.85;;;12.77;;
55146;SDS011;41039;49.830;23.988;2022-12-18T09:32:50;32.95;;;13.30;;
55146;SDS011;41039;49.830;23.988;2022-12-18T09:35:15;34.08;;;15.77;;
55146;SDS011;41039;49.830;23.988;2022-12-18T09:37:41;29.60;;;13.38;;
55146;SDS011;41039;49.830;23.988;2022-12-18T09:40:12;30.02;;;12.32;;
55146;SDS011;41039;49.830;23.988;2022-12-18T09:42:37;34.40;;;14.45;;
55146;SDS011;41039;49.830;23.988;2022-12-18T09:45:03;29.70;;;13.15;;
55146;SDS011;41039;49.830;23.988;2022-12-18T09:47:29;28.05;;;12.00;;
55146;SDS011;41039;49.830;23.988;2022-12-18T09:50:03;29.95;;;13.15;;
55146;SDS011;41039;49.830;23.988;2022-12-18T09:52:36;30.08;;;12.85;;
55146;SDS011;41039;49.830;23.988;2022-12-18T09:55:09;32.15;;;13.73;;
55146;SDS011;41039;49.830;23.988;2022-12-18T09:57:37;29.52;;;12.85;;
55146;SDS011;41039;49.830;23.988;2022-12-18T10:00:15;28.55;;;12.20;;
55146;SDS011;41039;49.830;23.988;2022-12-18T10:02:42;26.88;;;15.30;;
55146;SDS011;41039;49.830;23.988;2022-12-18T10:05:10;29.27;;;11.77;;
55146;SDS011;41039;49.830;23.988;2022-12-18T10:10:11;30.58;;;14.27;;
55146;SDS011;41039;49.830;23.988;2022-12-18T10:15:27;25.55;;;10.80;;
55146;SDS011;41039;49.830;23.988;2022-12-18T10:17:58;23.67;;;11.02;;
55146;SDS011;41039;49.830;23.988;2022-12-18T10:20:34;25.75;;;11.27;;
55146;SDS011;41039;49.830;23.988;2022-12-18T10:25:47;33.60;;;12.80;;
55146;SDS011;41039;49.830;23.988;2022-12-18T10:28:14;18.20;;;10.43;;
55146;SDS011;41039;49.830;23.988;2022-12-18T10:30:40;23.90;;;10.27;;
55146;SDS011;41039;49.830;23.988;2022-12-18T10:33:08;23.55;;;11.02;;
55146;SDS011;41039;49.830;23.988;2022-12-18T10:35:34;35.55;;;13.23;;
55146;SDS011;41039;49.830;23.988;2022-12-18T10:40:50;22.98;;;11.02;;
55146;SDS011;41039;49.830;23.988;2022-12-18T10:43:19;27.05;;;11.88;;
55146;SDS011;41039;49.830;23.988;2022-12-18T10:45:58;25.73;;;11.68;;
55146;SDS011;41039;49.830;23.988;2022-12-18T10:48:24;25.02;;;10.95;;
55146;SDS011;41039;49.830;23.988;2022-12-18T10:50:49;28.95;;;13.38;;
55146;SDS011;41039;49.830;23.988;2022-12-18T10:53:22;23.38;;;11.20;;
55146;SDS011;41039;49.830;23.988;2022-12-18T10:55:48;23.10;;;11.75;;
55146;SDS011;41039;49.830;23.988;2022-12-18T10:58:16;24.98;;;10.63;;
55146;SDS011;41039;49.830;23.988;2022-12-18T11:00:42;23.55;;;9.57;;
55146;SDS011;41039;49.830;23.988;2022-12-18T11:03:29;23.65;;;10.43;;
55146;SDS011;41039;49.830;23.988;2022-12-18T11:08:32;27.98;;;12.35;;
55146;SDS011;41039;49.830;23.988;2022-12-18T11:10:57;24.67;;;12.00;;
55146;SDS011;41039;49.830;23.988;2022-12-18T11:13:23;32.55;;;13.90;;
55146;SDS011;41039;49.830;23.988;2022-12-18T11:15:49;30.30;;;12.38;;
55146;SDS011;41039;49.830;23.988;2022-12-18T11:18:20;25.48;;;12.02;;
55146;SDS011;41039;49.830;23.988;2022-12-18T11:20:50;24.38;;;11.57;;
55146;SDS011;41039;49.830;23.988;2022-12-18T11:23:16;24.38;;;11.63;;
55146;SDS011;41039;49.830;23.988;2022-12-18T11:25:50;25.05;;;12.52;;
55146;SDS011;41039;49.830;23.988;2022-12-18T11:33:46;25.05;;;11.13;;
55146;SDS011;41039;49.830;23.988;2022-12-18T11:36:12;29.05;;;12.75;;
55146;SDS011;41039;49.830;23.988;2022-12-18T11:38:41;28.27;;;11.32;;
55146;SDS011;41039;49.830;23.988;2022-12-18T11:43:41;25.05;;;13.70;;
55146;SDS011;41039;49.830;23.988;2022-12-18T11:48:38;27.58;;;11.95;;
55146;SDS011;41039;49.830;23.988;2022-12-18T11:51:09;24.67;;;12.80;;
55146;SDS011;41039;49.830;23.988;2022-12-18T11:53:36;35.83;;;14.85;;
55146;SDS011;41039;49.830;23.988;2022-12-18T11:58:47;26.70;;;10.95;;
55146;SDS011;41039;49.830;23.988;2022-12-18T12:06:37;22.35;;;9.15;;
55146;SDS011;41039;49.830;23.988;2022-12-18T12:12:07;22.52;;;10.43;;
55146;SDS011;41039;49.830;23.988;2022-12-18T12:15:21;28.15;;;12.40;;
55146;SDS011;41039;49.830;23.988;2022-12-18T12:25:52;23.85;;;9.77;;
55146;SDS011;41039;49.830;23.988;2022-12-18T12:28:02;30.92;;;10.93;;
55146;SDS011;41039;49.830;23.988;2022-12-18T12:38:46;35.20;;;15.07;;
55146;SDS011;41039;49.830;23.988;2022-12-18T12:41:16;33.38;;;15.73;;
55146;SDS011;41039;49.830;23.988;2022-12-18T12:44:02;36.72;;;15.82;;
55146;SDS011;41039;49.830;23.988;2022-12-18T12:46:28;60.30;;;18.83;;
55146;SDS011;41039;49.830;23.988;2022-12-18T12:48:58;53.67;;;19.77;;
55146;SDS011;41039;49.830;23.988;2022-12-18T12:51:34;36.22;;;16.52;;
55146;SDS011;41039;49.830;23.988;2022-12-18T12:54:01;30.52;;;14.57;;
55146;SDS011;41039;49.830;23.988;2022-12-18T12:56:31;27.80;;;11.98;;
55146;SDS011;41039;49.830;23.988;2022-12-18T12:58:59;24.17;;;10.70;;
55146;SDS011;41039;49.830;23.988;2022-12-18T13:03:54;20.25;;;8.75;;
55146;SDS011;41039;49.830;23.988;2022-12-18T13:08:54;20.95;;;9.20;;
55146;SDS011;41039;49.830;23.988;2022-12-18T13:14:25;28.55;;;12.13;;
55146;SDS011;41039;49.830;23.988;2022-12-18T13:16:51;28.02;;;14.30;;
55146;SDS011;41039;49.830;23.988;2022-12-18T13:19:23;34.13;;;13.75;;
55146;SDS011;41039;49.830;23.988;2022-12-18T13:24:20;37.40;;;14.80;;
55146;SDS011;41039;49.830;23.988;2022-12-18T13:26:47;42.30;;;18.50;;
55146;SDS011;41039;49.830;23.988;2022-12-18T13:29:14;37.17;;;17.45;;
55146;SDS011;41039;49.830;23.988;2022-12-18T13:31:59;37.75;;;15.95;;
55146;SDS011;41039;49.830;23.988;2022-12-18T13:34:25;30.08;;;13.35;;
55146;SDS011;41039;49.830;23.988;2022-12-18T13:36:52;32.17;;;14.05;;
55146;SDS011;41039;49.830;23.988;2022-12-18T13:41:43;26.38;;;10.65;;
55146;SDS011;41039;49.830;23.988;2022-12-18T13:46:43;38.00;;;15.70;;
55146;SDS011;41039;49.830;23.988;2022-12-18T13:51:39;24.65;;;12.25;;
55146;SDS011;41039;49.830;23.988;2022-12-18T13:54:18;23.92;;;11.02;;
55146;SDS011;41039;49.830;23.988;2022-12-18T13:56:45;22.92;;;11.18;;
55146;SDS011;41039;49.830;23.988;2022-12-18T13:59:24;23.98;;;11.00;;
55146;SDS011;41039;49.830;23.988;2022-12-18T14:01:56;23.98;;;10.48;;
55146;SDS011;41039;49.830;23.988;2022-12-18T14:04:27;24.20;;;10.52;;
55146;SDS011;41039;49.830;23.988;2022-12-18T14:06:55;25.27;;;12.02;;
55146;SDS011;41039;49.830;23.988;2022-12-18T14:09:25;31.35;;;14.07;;
55146;SDS011;41039;49.830;23.988;2022-12-18T14:11:51;36.90;;;15.45;;
55146;SDS011;41039;49.830;23.988;2022-12-18T14:14:17;45.85;;;18.02;;
55146;SDS011;41039;49.830;23.988;2022-12-18T14:16:43;44.08;;;18.55;;
55146;SDS011;41039;49.830;23.988;2022-12-18T14:19:10;46.95;;;19.08;;
55146;SDS011;41039;49.830;23.988;2022-12-18T14:21:37;34.47;;;14.57;;
55146;SDS011;41039;49.830;23.988;2022-12-18T14:24:11;25.95;;;11.30;;
55146;SDS011;41039;49.830;23.988;2022-12-18T14:26:38;21.27;;;9.90;;
55146;SDS011;41039;49.830;23.988;2022-12-18T14:31:44;21.67;;;9.57;;
55146;SDS011;41039;49.830;23.988;2022-12-18T14:34:15;22.92;;;9.30;;
55146;SDS011;41039;49.830;23.988;2022-12-18T14:36:41;21.25;;;9.35;;
55146;SDS011;41039;49.830;23.988;2022-12-18T14:39:13;21.27;;;8.63;;
55146;SDS011;41039;49.830;23.988;2022-12-18T14:41:41;22.45;;;9.60;;
55146;SDS011;41039;49.830;23.988;2022-12-18T14:44:07;23.20;;;10.10;;
55146;SDS011;41039;49.830;23.988;2022-12-18T14:46:37;22.85;;;9.88;;
55146;SDS011;41039;49.830;23.988;2022-12-18T14:49:04;23.13;;;10.32;;
55146;SDS011;41039;49.830;23.988;2022-12-18T14:51:33;24.75;;;12.32;;
55146;SDS011;41039;49.830;23.988;2022-12-18T14:54:00;29.85;;;13.27;;
55146;SDS011;41039;49.830;23.988;2022-12-18T14:56:29;30.58;;;14.77;;
55146;SDS011;41039;49.830;23.988;2022-12-18T14:58:58;26.83;;;13.18;;
55146;SDS011;41039;49.830;23.988;2022-12-18T15:01:34;34.20;;;15.20;;
55146;SDS011;41039;49.830;23.988;2022-12-18T15:04:01;38.85;;;13.98;;
55146;SDS011;41039;49.830;23.988;2022-12-18T15:06:36;28.73;;;13.43;;
55146;SDS011;41039;49.830;23.988;2022-12-18T15:09:06;27.17;;;11.85;;
55146;SDS011;41039;49.830;23.988;2022-12-18T15:11:45;25.27;;;11.43;;
55146;SDS011;41039;49.830;23.988;2022-12-18T15:16:54;29.00;;;13.88;;
55146;SDS011;41039;49.830;23.988;2022-12-18T15:19:20;24.77;;;12.38;;
55146;SDS011;41039;49.830;23.988;2022-12-18T15:21:46;25.42;;;12.27;;
55146;SDS011;41039;49.830;23.988;2022-12-18T15:24:16;25.77;;;11.68;;
55146;SDS011;41039;49.830;23.988;2022-12-18T15:26:42;18.23;;;9.75;;
55146;SDS011;41039;49.830;23.988;2022-12-18T15:29:15;25.08;;;11.65;;
55146;SDS011;41039;49.830;23.988;2022-12-18T15:31:43;20.05;;;9.45;;
55146;SDS011;41039;49.830;23.988;2022-12-18T15:36:34;20.80;;;9.38;;
55146;SDS011;41039;49.830;23.988;2022-12-18T15:39:02;21.73;;;9.60;;
55146;SDS011;41039;49.830;23.988;2022-12-18T15:41:30;17.23;;;9.30;;
55146;SDS011;41039;49.830;23.988;2022-12-18T15:43:56;20.70;;;8.38;;
55146;SDS011;41039;49.830;23.988;2022-12-18T15:46:22;15.95;;;8.18;;
55146;SDS011;41039;49.830;23.988;2022-12-18T15:48:51;23.98;;;11.18;;
55146;SDS011;41039;49.830;23.988;2022-12-18T15:51:18;33.83;;;13.80;;
55146;SDS011;41039;49.830;23.988;2022-12-18T15:53:43;27.02;;;11.60;;